Time;durP1;ratioP1;P1;durP2;ratioP2;P2;SDS_P1;SDS_P2;PMS_P1;PMS_P2;Temp;Humidity;BMP_temperature;BMP_pressure;BME280_temperature;BME280_humidity;BME280_pressure;Samples;Min_cycle;Max_cycle;Signal;HPM_P1;HPM_P2
2023/08/07 00:00:35;;;;;;;10.65;2.58;;;;;;;12.32;100.00;101330.63;4936527;29;20106;-76
2023/08/07 00:03:00;;;;;;;7.22;1.85;;;;;;;12.33;100.00;101327.09;4936655;29;20027;-75
2023/08/07 00:05:26;;;;;;;9.55;2.10;;;;;;;12.30;100.00;101329.88;4936259;29;20126;-74
2023/08/07 00:07:51;;;;;;;10.00;2.42;;;;;;;12.18;100.00;101309.91;4936343;29;20075;-76
2023/08/07 00:10:17;;;;;;;9.70;2.72;;;;;;;12.24;100.00;101321.66;4936577;29;20027;-74
2023/08/07 00:12:43;;;;;;;7.78;1.77;;;;;;;12.29;100.00;101330.81;4936526;29;20019;-75
2023/08/07 00:15:09;;;;;;;9.07;2.40;;;;;;;12.29;100.00;101338.59;4936295;29;20027;-75
2023/08/07 00:17:34;;;;;;;12.50;2.58;;;;;;;12.30;100.00;101336.81;4936395;29;20536;-76
2023/08/07 00:20:00;;;;;;;7.97;2.50;;;;;;;12.15;100.00;101311.88;4936359;29;20032;-75
2023/08/07 00:22:25;;;;;;;11.77;2.70;;;;;;;12.31;100.00;101330.72;4935916;29;20031;-76
2023/08/07 00:24:51;;;;;;;11.80;2.10;;;;;;;12.27;100.00;101335.22;4935100;29;20060;-75
2023/08/07 00:27:16;;;;;;;8.55;2.08;;;;;;;12.30;100.00;101327.28;4936203;29;20056;-76
2023/08/07 00:29:41;;;;;;;9.95;2.45;;;;;;;12.32;100.00;101335.78;4936095;29;20028;-76
2023/08/07 00:32:07;;;;;;;8.90;2.22;;;;;;;12.31;100.00;101347.09;4936054;29;20024;-74
2023/08/07 00:34:32;;;;;;;10.10;2.85;;;;;;;12.25;100.00;101326.72;4936218;29;20032;-75
2023/08/07 00:36:58;;;;;;;8.95;2.60;;;;;;;12.34;100.00;101341.72;4935882;29;20062;-76
2023/08/07 00:39:24;;;;;;;11.43;2.88;;;;;;;12.36;100.00;101339.00;4935766;29;20115;-75
2023/08/07 00:41:49;;;;;;;9.45;2.78;;;;;;;12.37;100.00;101342.44;4935932;29;20110;-74
2023/08/07 00:44:14;;;;;;;10.85;2.38;;;;;;;12.36;100.00;101339.00;4935782;29;20057;-76
2023/08/07 00:46:40;;;;;;;13.88;2.60;;;;;;;12.37;100.00;101347.63;4935766;29;20042;-75
2023/08/07 00:49:07;;;;;;;9.73;2.33;;;;;;;12.35;100.00;101352.91;4935912;29;20027;-77
2023/08/07 00:51:33;;;;;;;12.27;3.30;;;;;;;12.34;100.00;101346.06;4935856;29;20028;-79
2023/08/07 00:54:01;;;;;;;11.32;2.78;;;;;;;12.32;100.00;101351.34;4935145;29;20449;-79
2023/08/07 00:56:28;;;;;;;11.20;2.85;;;;;;;12.30;100.00;101344.59;4935745;29;20039;-79
2023/08/07 00:58:53;;;;;;;9.45;2.13;;;;;;;12.28;100.00;101342.06;4935628;29;20474;-79
2023/08/07 01:01:19;;;;;;;8.85;2.75;;;;;;;12.27;100.00;101332.66;4935665;29;20114;-80
2023/08/07 01:03:44;;;;;;;10.82;2.40;;;;;;;12.28;100.00;101338.66;4935559;29;20055;-79
2023/08/07 01:06:10;;;;;;;12.32;2.63;;;;;;;12.26;100.00;101332.75;4935590;29;20079;-77
2023/08/07 01:08:35;;;;;;;12.13;2.40;;;;;;;12.24;100.00;101332.00;4935620;29;20115;-80
2023/08/07 01:11:36;;;;;;;11.10;2.47;;;;;;;12.28;100.00;101346.41;4935350;29;20046;-76
2023/08/07 01:14:18;;;;;;;13.38;2.90;;;;;;;12.31;100.00;101336.72;4935551;29;20042;-75
2023/08/07 01:17:00;;;;;;;10.77;3.08;;;;;;;12.31;100.00;101339.31;4935379;29;20023;-75
2023/08/07 01:19:28;;;;;;;14.32;3.08;;;;;;;12.31;100.00;101343.66;4935657;29;20051;-76
2023/08/07 01:22:09;;;;;;;13.30;2.75;;;;;;;12.32;100.00;101347.91;4935199;29;20094;-76
2023/08/07 01:24:36;;;;;;;9.98;2.78;;;;;;;12.30;100.00;101349.78;4935469;29;20031;-75
2023/08/07 01:27:16;;;;;;;9.45;2.75;;;;;;;12.37;100.00;101350.22;4935344;29;20473;-77
2023/08/07 01:30:12;;;;;;;11.52;3.10;;;;;;;12.38;100.00;101355.28;4935214;29;20055;-79
2023/08/07 01:32:54;;;;;;;12.85;2.92;;;;;;;12.40;100.00;101357.81;4935350;29;20031;-79
2023/08/07 01:35:25;;;;;;;13.18;2.92;;;;;;;12.33;100.00;101347.00;4935390;29;20028;-78
2023/08/07 01:37:51;;;;;;;11.40;3.05;;;;;;;12.35;100.00;101342.53;4935091;29;20035;-77
2023/08/07 01:40:19;;;;;;;7.53;2.33;;;;;;;12.45;100.00;101358.34;4934903;29;20049;-78
2023/08/07 01:42:45;;;;;;;12.23;3.08;;;;;;;12.43;100.00;101360.19;4935518;29;20039;-75
2023/08/07 01:45:11;;;;;;;12.30;2.85;;;;;;;12.37;100.00;101348.44;4935257;29;20032;-75
2023/08/07 01:47:36;;;;;;;13.90;3.15;;;;;;;12.43;100.00;101360.19;4935273;29;20036;-78
2023/08/07 01:50:02;;;;;;;11.13;2.67;;;;;;;12.35;100.00;101352.91;4935365;29;20039;-78
2023/08/07 01:52:27;;;;;;;8.77;2.38;;;;;;;12.43;100.00;101363.63;4934937;29;20028;-77
2023/08/07 01:54:52;;;;;;;11.43;2.53;;;;;;;12.39;100.00;101369.06;4934771;29;20094;-75
2023/08/07 01:57:18;;;;;;;13.73;2.78;;;;;;;12.37;100.00;101366.56;4935115;29;20068;-77
2023/08/07 01:59:44;;;;;;;11.40;2.75;;;;;;;12.37;100.00;101376.94;4935166;29;20111;-75
2023/08/07 02:02:10;;;;;;;9.73;2.60;;;;;;;12.23;100.00;101362.25;4935129;29;20167;-75
2023/08/07 02:04:35;;;;;;;9.93;2.72;;;;;;;12.27;100.00;101376.66;4935136;29;20508;-75
2023/08/07 02:07:00;;;;;;;9.77;2.75;;;;;;;12.13;100.00;101355.16;4938529;29;20035;-75
2023/08/07 02:09:26;;;;;;;8.25;2.80;;;;;;;12.19;100.00;101370.28;4938501;29;20019;-75
2023/08/07 02:11:51;;;;;;;8.98;2.28;;;;;;;12.11;100.00;101364.78;4938503;29;20106;-76
2023/08/07 02:14:16;;;;;;;8.18;2.83;;;;;;;12.21;100.00;101384.00;4938680;29;20496;-76
2023/08/07 02:16:42;;;;;;;10.25;2.60;;;;;;;12.15;100.00;101379.19;4938699;29;20036;-75
2023/08/07 02:19:07;;;;;;;11.77;2.83;;;;;;;12.17;100.00;101377.31;4938793;29;20465;-74
2023/08/07 02:21:32;;;;;;;11.07;3.28;;;;;;;12.11;100.00;101370.78;4938352;29;20034;-76
2023/08/07 02:23:58;;;;;;;7.88;2.95;;;;;;;12.17;100.00;101375.56;4938339;29;20107;-76
2023/08/07 02:26:23;;;;;;;9.10;3.38;;;;;;;12.15;100.00;101382.59;4938264;29;20027;-75
2023/08/07 02:28:48;;;;;;;11.07;3.28;;;;;;;12.14;100.00;101375.75;4938399;29;20024;-75
2023/08/07 02:31:14;;;;;;;10.75;3.10;;;;;;;12.10;100.00;101370.88;4938052;29;20055;-76
2023/08/07 02:33:41;;;;;;;11.82;3.47;;;;;;;12.15;100.00;101371.41;4938398;29;20032;-74
2023/08/07 02:36:06;;;;;;;9.10;3.15;;;;;;;12.17;100.00;101367.81;4937090;29;20063;-75
2023/08/07 02:38:31;;;;;;;12.02;3.40;;;;;;;12.19;100.00;101380.66;4938214;29;20066;-75
2023/08/07 02:40:57;;;;;;;9.32;3.13;;;;;;;12.21;100.00;101378.81;4938058;29;20027;-75
2023/08/07 02:43:22;;;;;;;8.73;2.92;;;;;;;12.12;100.00;101364.69;4937996;29;20529;-75
2023/08/07 02:45:47;;;;;;;9.93;2.97;;;;;;;12.25;100.00;101394.06;4938007;29;20028;-73
2023/08/07 02:48:13;;;;;;;11.23;3.47;;;;;;;12.25;100.00;101394.06;4938105;29;20027;-75
2023/08/07 02:50:38;;;;;;;9.95;3.33;;;;;;;12.26;100.00;101394.91;4937946;29;20070;-76
2023/08/07 02:53:03;;;;;;;11.00;3.13;;;;;;;12.22;100.00;101381.31;4937870;29;20038;-76
2023/08/07 02:55:29;;;;;;;11.07;3.47;;;;;;;12.21;100.00;101386.59;4937837;29;20035;-79
2023/08/07 02:57:54;;;;;;;8.65;2.95;;;;;;;12.09;100.00;101367.44;4937786;29;20071;-78
2023/08/07 03:00:19;;;;;;;10.93;2.95;;;;;;;12.06;100.00;101358.09;4937800;29;20027;-79
2023/08/07 03:02:45;;;;;;;11.63;2.88;;;;;;;12.13;100.00;101371.50;4938055;29;20042;-79
2023/08/07 03:05:11;;;;;;;12.65;3.42;;;;;;;12.21;100.00;101382.25;4937567;29;20052;-79
2023/08/07 03:07:37;;;;;;;10.63;3.05;;;;;;;12.19;100.00;101370.28;4937687;29;20064;-79
2023/08/07 03:10:03;;;;;;;9.00;3.40;;;;;;;12.16;100.00;101371.31;4937626;29;20028;-76
2023/08/07 03:12:29;;;;;;;13.63;3.70;;;;;;;12.20;100.00;101371.97;4937547;29;20114;-79
2023/08/07 03:14:54;;;;;;;8.98;2.70;;;;;;;12.28;100.00;101380.91;4937365;29;20115;-75
2023/08/07 03:17:20;;;;;;;11.90;3.50;;;;;;;12.29;100.00;101381.75;4936959;29;20389;-75
2023/08/07 03:19:46;;;;;;;14.15;3.22;;;;;;;12.29;100.00;101382.59;4937450;29;20043;-74
2023/08/07 03:22:11;;;;;;;9.35;3.15;;;;;;;12.31;100.00;101379.91;4937476;29;20392;-75
2023/08/07 03:24:37;;;;;;;13.45;3.63;;;;;;;12.31;100.00;101380.75;4937325;29;20031;-75
2023/08/07 03:27:02;;;;;;;17.02;3.47;;;;;;;12.25;100.00;101364.75;4937388;29;20031;-75
2023/08/07 03:29:28;;;;;;;10.45;2.85;;;;;;;12.17;100.00;101346.25;4937207;29;20123;-76
2023/08/07 03:31:53;;;;;;;10.27;2.75;;;;;;;12.23;100.00;101358.84;4937082;29;20106;-75
2023/08/07 03:34:18;;;;;;;9.07;3.22;;;;;;;12.05;100.00;101321.94;4937243;29;20486;-75
2023/08/07 03:36:44;;;;;;;11.30;3.47;;;;;;;12.19;100.00;101354.75;4937231;29;20525;-75
2023/08/07 03:39:11;;;;;;;9.88;3.05;;;;;;;12.05;100.00;101324.53;4936959;29;20032;-75
2023/08/07 03:41:37;;;;;;;10.55;3.25;;;;;;;12.31;100.00;101362.63;4936788;29;20028;-75
2023/08/07 03:44:02;;;;;;;11.15;3.13;;;;;;;12.31;100.00;101375.56;4936926;29;20027;-76
2023/08/07 03:46:28;;;;;;;11.70;3.40;;;;;;;12.32;100.00;101368.63;4936780;29;20489;-75
2023/08/07 03:48:53;;;;;;;11.13;3.22;;;;;;;12.33;100.00;101373.72;4937089;29;20444;-75
2023/08/07 03:51:18;;;;;;;8.98;3.10;;;;;;;12.35;100.00;101379.63;4937011;29;20035;-76
2023/08/07 03:53:44;;;;;;;10.57;3.28;;;;;;;12.30;100.00;101362.72;4936765;29;20032;-75
2023/08/07 03:56:09;;;;;;;13.55;3.72;;;;;;;12.35;100.00;101368.44;4936607;29;20102;-75
2023/08/07 03:58:35;;;;;;;11.73;3.28;;;;;;;12.30;100.00;101360.13;4936790;29;20035;-76
2023/08/07 04:01:00;;;;;;;14.70;3.72;;;;;;;12.28;100.00;101360.19;4936296;29;20040;-75
2023/08/07 04:03:25;;;;;;;10.00;2.85;;;;;;;12.33;100.00;101370.28;4936615;29;20031;-75
2023/08/07 04:05:53;;;;;;;11.45;3.55;;;;;;;12.33;100.00;101355.59;4935097;29;20055;-75
2023/08/07 04:08:19;;;;;;;14.45;3.00;;;;;;;12.32;100.00;101361.69;4936606;29;20114;-75
2023/08/07 04:10:44;;;;;;;10.68;3.03;;;;;;;12.45;100.00;101379.06;4936363;29;20031;-76
2023/08/07 04:13:10;;;;;;;7.65;2.47;;;;;;;12.43;100.00;101368.78;4936372;29;20397;-75
2023/08/07 04:15:35;;;;;;;9.55;3.60;;;;;;;12.49;100.00;101378.78;4936233;29;20031;-75
2023/08/07 04:18:00;;;;;;;8.88;3.38;;;;;;;12.47;100.00;101374.59;4936253;29;20040;-76
2023/08/07 04:20:26;;;;;;;9.43;3.03;;;;;;;12.50;100.00;101377.84;4936143;29;20099;-76
2023/08/07 04:22:51;;;;;;;10.85;2.92;;;;;;;12.43;100.00;101371.38;4936354;29;20052;-75
2023/08/07 04:25:17;;;;;;;11.43;2.67;;;;;;;12.49;100.00;101375.38;4936050;29;20031;-75
2023/08/07 04:27:42;;;;;;;12.20;3.13;;;;;;;12.38;100.00;101368.25;4935277;29;20506;-76
2023/08/07 04:30:08;;;;;;;10.32;2.67;;;;;;;12.39;100.00;101366.47;4935106;29;20545;-76
2023/08/07 04:32:33;;;;;;;6.82;2.75;;;;;;;12.42;100.00;101380.09;4935931;29;20074;-75
2023/08/07 04:34:59;;;;;;;9.40;2.60;;;;;;;12.47;100.00;101380.63;4936094;29;20038;-75
2023/08/07 04:37:24;;;;;;;9.15;2.65;;;;;;;12.50;100.00;101389.97;4936067;29;20393;-75
2023/08/07 04:39:49;;;;;;;9.88;2.83;;;;;;;12.39;100.00;101376.84;4935872;29;20058;-75
2023/08/07 04:42:14;;;;;;;10.45;2.83;;;;;;;12.50;100.00;101393.41;4935587;29;20513;-80
2023/08/07 04:44:40;;;;;;;10.05;2.63;;;;;;;12.42;100.00;101382.69;4935897;29;20038;-80
2023/08/07 04:47:05;;;;;;;8.88;2.60;;;;;;;12.49;100.00;101393.50;4935914;29;20059;-79
2023/08/07 04:49:31;;;;;;;9.05;2.70;;;;;;;12.45;100.00;101390.25;4935826;29;20070;-79
2023/08/07 04:51:56;;;;;;;9.35;2.83;;;;;;;12.42;100.00;101379.25;4935859;29;20422;-79
2023/08/07 04:54:21;;;;;;;7.90;2.53;;;;;;;12.52;100.00;101395.91;4935747;29;20028;-78
2023/08/07 04:56:47;;;;;;;7.63;2.83;;;;;;;12.54;100.00;101397.44;4935355;29;20024;-78
2023/08/07 04:59:12;;;;;;;7.20;2.45;;;;;;;12.47;100.00;101377.19;4935580;29;20063;-79
2023/08/07 05:01:38;;;;;;;10.45;2.90;;;;;;;12.56;100.00;101393.00;4935641;29;20027;-80
2023/08/07 05:04:04;;;;;;;8.52;2.60;;;;;;;12.61;100.00;101397.91;4935200;29;20096;-79
2023/08/07 05:06:30;;;;;;;7.65;2.40;;;;;;;12.53;100.00;101392.38;4935738;29;20027;-81
2023/08/07 05:08:55;;;;;;;6.90;2.13;;;;;;;12.62;100.00;101397.81;4935583;29;20036;-79
2023/08/07 05:11:21;;;;;;;10.57;2.42;;;;;;;12.66;100.00;101414.00;4935379;29;20150;-79
2023/08/07 05:13:46;;;;;;;10.95;3.03;;;;;;;12.68;100.00;101406.94;4935461;29;20106;-78
2023/08/07 05:16:11;;;;;;;5.82;2.50;;;;;;;12.69;100.00;101407.81;4935419;29;20354;-79
2023/08/07 05:18:37;;;;;;;10.93;2.58;;;;;;;12.46;100.00;101367.78;4935546;29;20386;-79
2023/08/07 05:21:03;;;;;;;9.02;2.28;;;;;;;12.61;100.00;101390.97;4935434;29;20054;-80
2023/08/07 05:23:28;;;;;;;8.23;2.63;;;;;;;12.75;100.00;101413.41;4935534;29;20426;-79
2023/08/07 05:25:53;;;;;;;8.35;2.33;;;;;;;12.75;100.00;101420.38;4935342;29;20450;-79
2023/08/07 05:28:18;;;;;;;7.65;2.40;;;;;;;12.77;100.00;101423.69;4935398;29;20103;-80
2023/08/07 05:30:44;;;;;;;6.45;2.38;;;;;;;12.70;100.00;101414.66;4935394;29;20032;-79
2023/08/07 05:33:09;;;;;;;10.38;3.00;;;;;;;12.58;100.00;101400.69;4935535;29;20032;-77
2023/08/07 05:35:35;;;;;;;10.25;2.50;;;;;;;12.72;100.00;101438.69;4935236;29;20028;-80
2023/08/07 05:38:00;;;;;;;7.90;2.60;;;;;;;12.59;100.00;101423.09;4935278;29;20023;-80
2023/08/07 05:40:26;;;;;;;7.88;2.35;;;;;;;12.55;100.00;101422.44;4938510;29;20047;-80
2023/08/07 05:42:51;;;;;;;8.82;2.55;;;;;;;12.63;100.00;101442.69;4939211;29;20035;-80
2023/08/07 05:45:16;;;;;;;10.57;2.58;;;;;;;12.61;100.00;101442.78;4939126;29;20177;-80
2023/08/07 05:47:42;;;;;;;11.52;2.55;;;;;;;12.60;100.00;101448.91;4939183;29;20028;-80
2023/08/07 05:50:07;;;;;;;7.32;2.47;;;;;;;12.67;100.00;101456.28;4939119;29;20028;-79
2023/08/07 05:52:33;;;;;;;12.55;3.05;;;;;;;12.48;100.00;101430.66;4939153;29;20445;-79
2023/08/07 05:54:58;;;;;;;11.27;3.38;;;;;;;12.55;100.00;101450.94;4939157;29;20393;-79
2023/08/07 05:57:23;;;;;;;11.68;2.92;;;;;;;12.62;100.00;101459.16;4938661;29;20043;-80
2023/08/07 05:59:48;;;;;;;9.25;2.95;;;;;;;12.63;100.00;101461.66;4938759;29;20130;-80
2023/08/07 06:02:14;;;;;;;10.85;3.15;;;;;;;12.63;100.00;101466.00;4938844;29;20071;-80
2023/08/07 06:04:40;;;;;;;12.15;3.40;;;;;;;12.64;100.00;101463.31;4932945;29;20071;-81
2023/08/07 06:07:06;;;;;;;8.20;2.47;;;;;;;12.73;100.00;101477.47;4920202;29;20043;-78
2023/08/07 06:09:32;;;;;;;10.50;3.08;;;;;;;12.81;100.00;101471.81;4920067;29;20043;-80
2023/08/07 06:11:57;;;;;;;10.88;2.65;;;;;;;12.81;100.00;101470.06;4919583;29;20382;-78
2023/08/07 06:14:25;;;;;;;13.15;3.83;;;;;;;12.83;100.00;101472.56;4919617;29;20036;-76
2023/08/07 06:16:50;;;;;;;9.40;2.97;;;;;;;12.83;100.00;101475.16;4919298;29;20035;-80
2023/08/07 06:19:15;;;;;;;12.52;2.67;;;;;;;12.70;100.00;101456.94;4919580;29;20028;-79
2023/08/07 06:21:41;;;;;;;14.43;3.20;;;;;;;12.83;100.00;101485.50;4919264;29;20362;-78
2023/08/07 06:24:06;;;;;;;10.35;2.65;;;;;;;12.70;100.00;101462.13;4919649;29;20036;-80
2023/08/07 06:26:31;;;;;;;12.05;2.85;;;;;;;12.88;100.00;101488.63;4927073;29;20588;-80
2023/08/07 06:28:57;;;;;;;9.55;2.67;;;;;;;12.90;100.00;101485.06;4938266;29;20055;-79
2023/08/07 06:31:22;;;;;;;13.90;3.10;;;;;;;13.00;100.00;101489.66;4938249;29;20046;-79
2023/08/07 06:33:49;;;;;;;12.43;3.00;;;;;;;13.13;100.00;101486.19;4938031;29;20031;-78
2023/08/07 06:36:14;;;;;;;11.10;2.97;;;;;;;13.28;100.00;101499.16;4938390;29;20031;-79
2023/08/07 06:38:40;;;;;;;10.60;2.97;;;;;;;13.41;100.00;101495.69;4938191;29;20374;-79
2023/08/07 06:41:05;;;;;;;9.52;2.50;;;;;;;13.60;100.00;101505.72;4938047;29;20032;-79
2023/08/07 06:43:30;;;;;;;11.40;3.20;;;;;;;13.77;100.00;101482.09;4938034;29;20039;-80
2023/08/07 06:45:56;;;;;;;9.63;3.08;;;;;;;14.07;100.00;101487.00;4938142;29;20034;-74
2023/08/07 06:48:22;;;;;;;6.13;2.25;;;;;;;14.28;100.00;101489.91;4937815;29;20465;-76
2023/08/07 06:50:49;;;;;;;10.05;2.30;;;;;;;14.13;100.00;101459.78;4937197;29;20499;-75
2023/08/07 06:53:15;;;;;;;10.07;2.08;;;;;;;14.44;100.00;101507.88;4937494;29;20034;-74
2023/08/07 06:55:43;;;;;;;6.65;2.30;;;;;;;14.52;100.00;101520.38;4937929;29;20032;-80
2023/08/07 06:58:09;;;;;;;13.55;2.88;;;;;;;14.48;100.00;101498.97;4937847;29;20035;-78
2023/08/07 07:00:35;;;;;;;8.98;2.35;;;;;;;14.58;100.00;101520.81;4937570;29;20366;-79
2023/08/07 07:03:02;;;;;;;10.38;2.65;;;;;;;14.50;100.00;101525.69;4937649;29;20051;-75
2023/08/07 07:05:27;;;;;;;10.57;2.50;;;;;;;14.43;100.00;101527.00;4937481;29;20107;-76
2023/08/07 07:07:54;;;;;;;8.18;2.20;;;;;;;14.24;100.00;101518.78;4937570;29;20433;-76
2023/08/07 07:10:19;;;;;;;14.77;3.03;;;;;;;14.21;100.00;101544.97;4937584;29;20024;-78
2023/08/07 07:12:44;;;;;;;9.95;2.55;;;;;;;14.00;100.00;101542.03;4937478;29;20102;-76
2023/08/07 07:15:10;;;;;;;11.05;2.10;;;;;;;13.82;100.00;101551.84;4928231;29;20066;-78
2023/08/07 07:17:35;;;;;;;8.18;2.38;;;;;;;13.72;100.00;101545.59;4919100;29;20112;-79
2023/08/07 07:20:00;;;;;;;10.00;2.78;;;;;;;13.88;100.00;101561.84;4918799;29;20035;-76
2023/08/07 07:22:26;;;;;;;11.00;2.88;;;;;;;13.91;100.00;101564.25;4916894;29;20086;-77
2023/08/07 07:24:51;;;;;;;10.25;2.42;;;;;;;13.82;100.00;101532.84;4918012;29;20554;-80
2023/08/07 07:27:17;;;;;;;8.35;2.15;;;;;;;13.85;100.00;101543.03;4918175;29;20032;-79
2023/08/07 07:29:42;;;;;;;9.35;2.50;;;;;;;13.99;100.00;101566.34;4918344;29;20028;-77
2023/08/07 07:32:07;;;;;;;6.55;2.53;;;;;;;14.20;100.00;101571.88;4918037;29;20034;-80
2023/08/07 07:34:33;;;;;;;8.40;2.05;;;;;;;14.34;100.00;101567.44;4918221;29;20032;-77
2023/08/07 07:36:58;;;;;;;7.20;2.20;;;;;;;14.19;100.00;101562.44;4918189;29;20062;-75
2023/08/07 07:39:24;;;;;;;9.07;2.78;;;;;;;14.02;100.00;101587.75;4917969;29;20028;-76
2023/08/07 07:41:49;;;;;;;8.02;2.25;;;;;;;13.92;100.00;101583.25;4918008;29;20033;-75
2023/08/07 07:44:14;;;;;;;8.98;2.80;;;;;;;13.77;100.00;101600.66;4917930;29;20036;-75
2023/08/07 07:46:40;;;;;;;6.85;2.20;;;;;;;13.68;100.00;101591.69;4918025;29;20028;-77
2023/08/07 07:49:05;;;;;;;5.93;2.20;;;;;;;13.45;100.00;101563.75;4917980;29;20027;-76
2023/08/07 07:51:31;;;;;;;9.98;2.17;;;;;;;13.53;100.00;101581.44;4917844;29;20028;-76
2023/08/07 07:53:57;;;;;;;7.22;2.30;;;;;;;13.60;100.00;101583.56;4917724;29;20028;-75
2023/08/07 07:56:23;;;;;;;5.13;2.13;;;;;;;13.71;100.00;101572.50;4917656;29;20034;-77
2023/08/07 07:58:48;;;;;;;5.88;2.22;;;;;;;13.85;100.00;101576.78;4917749;29;20462;-77
2023/08/07 08:01:13;;;;;;;9.98;2.72;;;;;;;14.06;100.00;101591.81;4917687;29;20035;-78
2023/08/07 08:03:39;;;;;;;11.35;2.40;;;;;;;14.22;100.00;101581.25;4916668;29;20106;-78
2023/08/07 08:06:05;;;;;;;8.77;2.58;;;;;;;14.43;100.00;101591.97;4915906;29;20051;-80
2023/08/07 08:08:30;;;;;;;6.68;2.20;;;;;;;14.73;100.00;101590.84;4900655;29;20059;-80
2023/08/07 08:10:55;;;;;;;5.90;2.20;;;;;;;14.83;100.00;101574.53;4917213;29;20104;-80
2023/08/07 08:13:21;;;;;;;7.90;2.30;;;;;;;14.96;100.00;101581.50;4917376;29;20419;-79
2023/08/07 08:15:46;;;;;;;6.03;1.90;;;;;;;15.04;100.00;101595.59;4917171;29;20039;-78
2023/08/07 08:18:12;;;;;;;8.30;2.63;;;;;;;14.97;100.00;101593.56;4917489;29;20035;-79
2023/08/07 08:20:38;;;;;;;8.88;2.55;;;;;;;14.78;100.00;101562.78;4917122;29;20471;-78
2023/08/07 08:23:04;;;;;;;7.88;2.40;;;;;;;14.88;100.00;101601.06;4917294;29;20032;-78
2023/08/07 08:25:30;;;;;;;8.77;2.38;;;;;;;14.66;100.00;101564.47;4900072;29;20036;-80
2023/08/07 08:27:56;;;;;;;8.52;2.90;;;;;;;14.14;100.00;101481.38;4917042;29;20036;-79
2023/08/07 08:30:21;;;;;;;7.88;2.70;;;;;;;14.89;100.00;101591.47;4916831;29;20028;-80
2023/08/07 08:32:47;;;;;;;9.60;2.67;;;;;;;15.08;100.00;101604.06;4916836;29;20031;-80
2023/08/07 08:35:12;;;;;;;7.03;2.88;;;;;;;15.62;100.00;101603.72;4916788;29;20115;-79
2023/08/07 08:37:38;;;;;;;9.70;2.47;;;;;;;15.85;100.00;101571.66;4916642;29;20059;-80
2023/08/07 08:40:04;;;;;;;6.88;2.50;;;;;;;16.27;100.00;101604.13;4916510;29;20055;-80
2023/08/07 08:42:29;;;;;;;11.60;2.65;;;;;;;16.40;98.96;101593.59;4916628;29;20032;-79
2023/08/07 08:44:56;;;;;;;7.78;2.20;;;;;;;16.23;94.40;101568.81;4916490;29;20024;-79
2023/08/07 08:47:22;;;;;;;10.13;3.10;;;;;;;16.33;88.33;101621.09;4916540;29;20473;-80
2023/08/07 08:50:02;;;;;;;6.80;2.13;;;;;;;16.02;88.14;101614.66;4916467;29;20564;-78
2023/08/07 08:52:28;;;;;;;8.50;2.10;;;;;;;15.84;88.00;101618.66;4916534;29;20028;-76
2023/08/07 08:54:55;;;;;;;9.73;2.88;;;;;;;15.67;89.50;101607.66;4916337;29;20024;-80
2023/08/07 08:57:22;;;;;;;10.20;2.33;;;;;;;15.56;88.66;101611.94;4916371;29;20058;-77
2023/08/07 08:59:48;;;;;;;13.23;3.00;;;;;;;15.65;93.50;101622.56;4916490;29;20035;-79
2023/08/07 09:02:13;;;;;;;9.93;2.50;;;;;;;15.67;92.40;101625.06;4916096;29;20035;-80
2023/08/07 09:04:39;;;;;;;9.35;2.50;;;;;;;15.68;89.70;101617.13;4916226;29;20127;-78
2023/08/07 09:07:04;;;;;;;10.27;2.47;;;;;;;15.77;90.98;101624.28;4916475;29;20489;-78
2023/08/07 09:09:30;;;;;;;6.60;2.00;;;;;;;15.86;88.23;101627.16;4916423;29;20028;-79
2023/08/07 09:11:58;;;;;;;8.82;2.15;;;;;;;15.99;88.63;101625.31;4916443;29;20052;-79
2023/08/07 09:14:27;;;;;;;6.90;2.05;;;;;;;16.11;84.57;101629.63;4916001;29;20024;-80
2023/08/07 09:16:53;;;;;;;7.65;2.10;;;;;;;16.28;82.75;101631.00;4916555;29;20024;-80
2023/08/07 09:19:19;;;;;;;10.35;2.70;;;;;;;16.37;81.04;101634.72;4916624;29;20028;-82
2023/08/07 09:21:44;;;;;;;8.10;2.13;;;;;;;16.44;80.52;101633.31;4916426;29;20554;-81
2023/08/07 09:24:11;;;;;;;9.85;2.10;;;;;;;16.52;84.36;101620.53;4916425;29;20032;-80
2023/08/07 09:26:41;;;;;;;7.03;2.17;;;;;;;16.80;80.12;101643.59;4916307;29;20029;-79
2023/08/07 09:29:07;;;;;;;7.45;2.10;;;;;;;16.79;78.10;101641.91;4915012;29;20104;-79
2023/08/07 09:31:37;;;;;;;9.77;2.50;;;;;;;16.73;80.58;101645.03;4916363;29;20036;-78
2023/08/07 09:34:03;;;;;;;4.78;2.05;;;;;;;16.16;74.21;101579.81;4916234;29;20463;-77
2023/08/07 09:36:32;;;;;;;7.45;2.30;;;;;;;16.36;75.09;101639.09;4916470;29;20040;-81
2023/08/07 09:39:01;;;;;;;8.05;2.20;;;;;;;16.31;74.25;101643.78;4916157;29;20029;-79
2023/08/07 09:41:28;;;;;;;6.28;2.00;;;;;;;16.26;71.71;101646.75;4916049;29;20028;-79
2023/08/07 09:43:54;;;;;;;8.23;2.03;;;;;;;16.22;74.44;101624.50;4916240;29;20076;-78
2023/08/07 09:46:19;;;;;;;6.25;1.70;;;;;;;16.16;72.54;101609.28;4916087;29;20024;-80
2023/08/07 09:48:45;;;;;;;8.05;2.05;;;;;;;16.50;72.77;101638.88;4916273;29;20118;-80
2023/08/07 09:51:10;;;;;;;4.90;1.75;;;;;;;16.57;67.64;101653.13;4916036;29;20078;-80
2023/08/07 09:53:36;;;;;;;7.90;1.63;;;;;;;16.77;67.09;101637.78;4916126;29;20040;-81
2023/08/07 09:56:02;;;;;;;5.20;1.55;;;;;;;16.93;65.70;101638.28;4916002;29;20055;-82
2023/08/07 09:58:28;;;;;;;6.72;1.80;;;;;;;16.81;67.20;101647.03;4916274;29;20047;-81
2023/08/07 10:00:55;;;;;;;6.18;1.58;;;;;;;16.74;69.39;101643.25;4914513;29;20489;-76
2023/08/07 10:03:22;;;;;;;6.32;1.67;;;;;;;16.88;72.99;101649.06;4916603;29;20028;-85
2023/08/07 10:05:48;;;;;;;8.68;1.88;;;;;;;16.80;70.92;101629.72;4915881;29;20052;-82
2023/08/07 10:08:14;;;;;;;7.60;1.70;;;;;;;16.90;71.26;101636.72;4916194;29;20543;-82
2023/08/07 10:10:40;;;;;;;6.53;1.70;;;;;;;17.03;68.24;101656.66;4915976;29;20032;-79
2023/08/07 10:13:05;;;;;;;9.98;1.80;;;;;;;16.98;69.97;101650.97;4916244;29;20060;-79
2023/08/07 10:15:32;;;;;;;9.43;1.85;;;;;;;16.95;66.56;101667.69;4915711;29;20470;-79
2023/08/07 10:17:58;;;;;;;6.88;2.20;;;;;;;16.86;66.97;101645.72;4916017;29;20039;-79
2023/08/07 10:20:28;;;;;;;5.25;1.60;;;;;;;17.11;64.83;101662.13;4915902;29;20028;-79
2023/08/07 10:22:59;;;;;;;7.72;1.85;;;;;;;17.16;67.36;101647.75;4916007;29;20036;-80
2023/08/07 10:25:27;;;;;;;6.88;2.22;;;;;;;17.30;64.95;101672.78;4915815;29;20051;-82
2023/08/07 10:27:55;;;;;;;8.30;1.73;;;;;;;17.46;66.50;101681.09;4919634;29;20032;-83
2023/08/07 10:30:22;;;;;;;6.75;1.80;;;;;;;17.53;64.04;101668.38;4919248;29;20051;-77
2023/08/07 10:32:48;;;;;;;7.30;2.00;;;;;;;17.69;64.02;101676.69;4919373;29;20038;-73
2023/08/07 10:35:33;;;;;;;3.83;1.30;;;;;;;17.64;59.51;101675.38;4917587;29;20040;-74
2023/08/07 10:38:07;;;;;;;7.35;1.38;;;;;;;17.63;59.89;101669.31;4933351;29;20028;-75
2023/08/07 10:40:32;;;;;;;5.72;1.80;;;;;;;17.69;59.04;101675.81;4938106;29;20437;-76
2023/08/07 10:43:19;;;;;;;7.22;1.63;;;;;;;17.48;58.31;101676.56;4938305;29;20020;-82
2023/08/07 10:45:44;;;;;;;7.63;1.67;;;;;;;17.40;59.92;101662.44;4922102;29;20095;-74
2023/08/07 10:48:11;;;;;;;6.28;1.60;;;;;;;17.31;58.46;101656.19;4919770;29;20025;-81
2023/08/07 10:50:56;;;;;;;5.40;1.50;;;;;;;17.57;60.23;101684.63;4918709;29;20032;-81
2023/08/07 10:53:43;;;;;;;4.80;1.60;;;;;;;17.81;60.19;101669.66;4919372;29;20495;-82
2023/08/07 10:56:11;;;;;;;5.50;1.65;;;;;;;17.88;59.82;101672.59;4922748;29;20389;-81
2023/08/07 10:58:38;;;;;;;6.10;1.50;;;;;;;18.20;59.35;101678.69;4937327;29;20035;-80
2023/08/07 11:01:20;;;;;;;6.60;1.48;;;;;;;18.31;57.48;101686.47;4937067;29;20106;-80
2023/08/07 11:03:48;;;;;;;;;;;;;;;18.40;59.57;101692.75;4921183;29;20494;-80
2023/08/07 11:06:13;;;;;;;5.45;1.70;;;;;;;18.17;57.94;101691.97;4937794;29;19923;-81
2023/08/07 11:08:40;;;;;;;7.28;1.80;;;;;;;17.63;58.12;101645.81;4936143;29;20044;-81
2023/08/07 11:11:06;;;;;;;5.30;1.55;;;;;;;17.74;59.58;101681.56;4937745;29;20027;-80
2023/08/07 11:13:32;;;;;;;6.50;1.75;;;;;;;17.81;59.48;101687.13;4937519;29;20035;-77